sensor_id;sensor_type;location;lat;lon;timestamp;temperature;humidity
23685;DHT22;12020;51.384;6.908;2023-12-20T04:23:44;7.20;99.90
23685;DHT22;12020;51.384;6.908;2023-12-20T05:09:31;7.10;99.90
23685;DHT22;12020;51.384;6.908;2023-12-20T05:20:39;7.10;99.90
23685;DHT22;12020;51.384;6.908;2023-12-20T05:27:42;7.00;99.90
23685;DHT22;12020;51.384;6.908;2023-12-20T05:31:30;7.00;99.90
23685;DHT22;12020;51.384;6.908;2023-12-20T05:38:37;7.00;99.90
23685;DHT22;12020;51.384;6.908;2023-12-20T05:42:22;7.00;99.90
23685;DHT22;12020;51.384;6.908;2023-12-20T06:52:50;7.10;99.90
23685;DHT22;12020;51.384;6.908;2023-12-20T06:59:29;7.10;99.90
23685;DHT22;12020;51.384;6.908;2023-12-20T07:02:47;7.10;99.90
23685;DHT22;12020;51.384;6.908;2023-12-20T07:14:08;7.30;99.90
23685;DHT22;12020;51.384;6.908;2023-12-20T07:16:40;7.30;99.90
23685;DHT22;12020;51.384;6.908;2023-12-20T07:22:30;7.50;99.90
23685;DHT22;12020;51.384;6.908;2023-12-20T07:25:06;7.40;99.90
23685;DHT22;12020;51.384;6.908;2023-12-20T07:27:31;7.50;99.90
23685;DHT22;12020;51.384;6.908;2023-12-20T07:30:10;7.60;99.90
23685;DHT22;12020;51.384;6.908;2023-12-20T07:32:58;7.60;99.90
23685;DHT22;12020;51.384;6.908;2023-12-20T07:35:59;7.50;99.90
23685;DHT22;12020;51.384;6.908;2023-12-20T07:38:46;7.40;99.90
23685;DHT22;12020;51.384;6.908;2023-12-20T07:41:17;7.30;99.90
23685;DHT22;12020;51.384;6.908;2023-12-20T07:43:44;7.40;99.90
23685;DHT22;12020;51.384;6.908;2023-12-20T07:46:11;7.40;99.90
23685;DHT22;12020;51.384;6.908;2023-12-20T07:48:55;7.30;99.90
23685;DHT22;12020;51.384;6.908;2023-12-20T07:51:23;7.30;99.90
23685;DHT22;12020;51.384;6.908;2023-12-20T07:53:49;7.30;99.90
23685;DHT22;12020;51.384;6.908;2023-12-20T07:56:18;7.30;99.90
23685;DHT22;12020;51.384;6.908;2023-12-20T07:58:46;7.30;99.90
23685;DHT22;12020;51.384;6.908;2023-12-20T08:01:31;7.30;99.90
23685;DHT22;12020;51.384;6.908;2023-12-20T08:04:18;7.20;99.90
23685;DHT22;12020;51.384;6.908;2023-12-20T08:06:48;7.20;99.90
23685;DHT22;12020;51.384;6.908;2023-12-20T08:09:16;7.20;99.90
23685;DHT22;12020;51.384;6.908;2023-12-20T08:11:52;7.20;99.90
23685;DHT22;12020;51.384;6.908;2023-12-20T08:14:48;7.30;99.90
23685;DHT22;12020;51.384;6.908;2023-12-20T08:17:15;7.20;99.90
23685;DHT22;12020;51.384;6.908;2023-12-20T08:19:49;7.20;99.90
23685;DHT22;12020;51.384;6.908;2023-12-20T08:22:20;7.30;99.90
23685;DHT22;12020;51.384;6.908;2023-12-20T08:24:50;7.30;99.90
23685;DHT22;12020;51.384;6.908;2023-12-20T08:27:16;7.30;99.90
23685;DHT22;12020;51.384;6.908;2023-12-20T08:29:44;7.30;99.90
23685;DHT22;12020;51.384;6.908;2023-12-20T08:32:18;7.30;99.90
23685;DHT22;12020;51.384;6.908;2023-12-20T08:34:44;7.40;99.90
23685;DHT22;12020;51.384;6.908;2023-12-20T08:37:13;7.40;99.90
23685;DHT22;12020;51.384;6.908;2023-12-20T08:39:48;7.40;99.90
23685;DHT22;12020;51.384;6.908;2023-12-20T08:42:13;7.40;99.90
23685;DHT22;12020;51.384;6.908;2023-12-20T08:44:39;7.40;99.90
23685;DHT22;12020;51.384;6.908;2023-12-20T08:47:05;7.40;99.90
23685;DHT22;12020;51.384;6.908;2023-12-20T08:49:31;7.40;99.90
23685;DHT22;12020;51.384;6.908;2023-12-20T08:51:57;7.40;99.90
23685;DHT22;12020;51.384;6.908;2023-12-20T08:54:24;7.40;99.90
23685;DHT22;12020;51.384;6.908;2023-12-20T08:56:50;7.40;99.90
23685;DHT22;12020;51.384;6.908;2023-12-20T08:59:15;7.40;99.90
23685;DHT22;12020;51.384;6.908;2023-12-20T09:01:41;7.40;99.90
23685;DHT22;12020;51.384;6.908;2023-12-20T09:04:08;7.40;99.90
23685;DHT22;12020;51.384;6.908;2023-12-20T09:06:34;7.30;99.90
23685;DHT22;12020;51.384;6.908;2023-12-20T09:09:00;7.40;99.90
23685;DHT22;12020;51.384;6.908;2023-12-20T09:11:25;7.40;99.90
23685;DHT22;12020;51.384;6.908;2023-12-20T09:13:52;7.40;99.90
23685;DHT22;12020;51.384;6.908;2023-12-20T09:16:18;7.50;99.90
23685;DHT22;12020;51.384;6.908;2023-12-20T09:18:44;7.50;99.90
23685;DHT22;12020;51.384;6.908;2023-12-20T09:21:10;7.50;99.90
23685;DHT22;12020;51.384;6.908;2023-12-20T09:23:36;7.50;99.90
23685;DHT22;12020;51.384;6.908;2023-12-20T09:26:03;7.50;99.90
23685;DHT22;12020;51.384;6.908;2023-12-20T09:28:29;7.50;99.90
23685;DHT22;12020;51.384;6.908;2023-12-20T09:30:55;7.50;99.90
23685;DHT22;12020;51.384;6.908;2023-12-20T09:33:22;7.50;99.90
23685;DHT22;12020;51.384;6.908;2023-12-20T09:35:48;7.50;99.90
23685;DHT22;12020;51.384;6.908;2023-12-20T09:38:14;7.50;99.90
23685;DHT22;12020;51.384;6.908;2023-12-20T09:40:41;7.50;99.90
23685;DHT22;12020;51.384;6.908;2023-12-20T09:43:17;7.50;99.90
23685;DHT22;12020;51.384;6.908;2023-12-20T09:45:47;7.50;99.90
23685;DHT22;12020;51.384;6.908;2023-12-20T09:48:13;7.60;99.90
23685;DHT22;12020;51.384;6.908;2023-12-20T09:50:40;7.60;99.90
23685;DHT22;12020;51.384;6.908;2023-12-20T09:53:08;7.50;99.90
23685;DHT22;12020;51.384;6.908;2023-12-20T09:55:36;7.50;99.90
23685;DHT22;12020;51.384;6.908;2023-12-20T09:58:02;7.60;99.90
23685;DHT22;12020;51.384;6.908;2023-12-20T10:00:28;7.60;99.90
23685;DHT22;12020;51.384;6.908;2023-12-20T10:02:58;7.60;99.90
23685;DHT22;12020;51.384;6.908;2023-12-20T10:05:32;7.60;99.90
23685;DHT22;12020;51.384;6.908;2023-12-20T10:07:59;7.70;99.90
23685;DHT22;12020;51.384;6.908;2023-12-20T10:10:25;7.70;99.90
23685;DHT22;12020;51.384;6.908;2023-12-20T10:13:06;7.70;99.90
23685;DHT22;12020;51.384;6.908;2023-12-20T10:15:33;7.60;99.90
23685;DHT22;12020;51.384;6.908;2023-12-20T10:17:59;7.60;99.90
23685;DHT22;12020;51.384;6.908;2023-12-20T10:20:27;7.60;99.90
23685;DHT22;12020;51.384;6.908;2023-12-20T10:22:55;7.60;99.90
23685;DHT22;12020;51.384;6.908;2023-12-20T10:25:21;7.70;99.90
23685;DHT22;12020;51.384;6.908;2023-12-20T10:27:47;7.60;99.90
23685;DHT22;12020;51.384;6.908;2023-12-20T10:30:13;7.60;99.90
23685;DHT22;12020;51.384;6.908;2023-12-20T10:32:40;7.60;99.90
23685;DHT22;12020;51.384;6.908;2023-12-20T10:35:09;7.70;99.90
23685;DHT22;12020;51.384;6.908;2023-12-20T10:37:36;7.70;99.90
23685;DHT22;12020;51.384;6.908;2023-12-20T10:40:04;7.70;99.90
23685;DHT22;12020;51.384;6.908;2023-12-20T10:42:32;7.70;99.90
23685;DHT22;12020;51.384;6.908;2023-12-20T10:45:01;7.70;99.90
23685;DHT22;12020;51.384;6.908;2023-12-20T10:47:36;7.70;99.90
23685;DHT22;12020;51.384;6.908;2023-12-20T10:50:05;7.70;99.90
23685;DHT22;12020;51.384;6.908;2023-12-20T10:52:32;7.70;99.90
23685;DHT22;12020;51.384;6.908;2023-12-20T10:54:59;7.70;99.90
23685;DHT22;12020;51.384;6.908;2023-12-20T10:57:27;7.70;99.90
23685;DHT22;12020;51.384;6.908;2023-12-20T10:59:54;7.70;99.90
23685;DHT22;12020;51.384;6.908;2023-12-20T11:02:22;7.70;99.90
23685;DHT22;12020;51.384;6.908;2023-12-20T11:08:28;7.80;99.90
23685;DHT22;12020;51.384;6.908;2023-12-20T11:11:03;7.80;99.90
23685;DHT22;12020;51.384;6.908;2023-12-20T11:13:53;7.80;99.90
23685;DHT22;12020;51.384;6.908;2023-12-20T11:16:20;7.80;99.90
23685;DHT22;12020;51.384;6.908;2023-12-20T11:18:45;7.80;99.90
23685;DHT22;12020;51.384;6.908;2023-12-20T11:21:12;7.80;99.90
23685;DHT22;12020;51.384;6.908;2023-12-20T11:23:42;7.90;99.90
23685;DHT22;12020;51.384;6.908;2023-12-20T11:26:08;7.90;99.90
23685;DHT22;12020;51.384;6.908;2023-12-20T11:28:34;7.90;99.90
23685;DHT22;12020;51.384;6.908;2023-12-20T11:31:01;7.90;99.90
23685;DHT22;12020;51.384;6.908;2023-12-20T11:33:36;7.90;99.90
23685;DHT22;12020;51.384;6.908;2023-12-20T11:36:02;7.90;99.90
23685;DHT22;12020;51.384;6.908;2023-12-20T11:38:36;7.90;99.90
23685;DHT22;12020;51.384;6.908;2023-12-20T11:41:06;7.90;99.90
23685;DHT22;12020;51.384;6.908;2023-12-20T11:43:35;8.00;99.90
23685;DHT22;12020;51.384;6.908;2023-12-20T11:46:08;8.00;99.90
23685;DHT22;12020;51.384;6.908;2023-12-20T11:48:36;8.00;99.90
23685;DHT22;12020;51.384;6.908;2023-12-20T11:51:08;8.00;99.90
23685;DHT22;12020;51.384;6.908;2023-12-20T11:53:35;8.00;99.90
23685;DHT22;12020;51.384;6.908;2023-12-20T11:56:04;8.00;99.90
23685;DHT22;12020;51.384;6.908;2023-12-20T11:58:32;8.00;99.90
23685;DHT22;12020;51.384;6.908;2023-12-20T12:00:58;8.00;99.90
23685;DHT22;12020;51.384;6.908;2023-12-20T12:03:25;8.00;99.90
23685;DHT22;12020;51.384;6.908;2023-12-20T12:05:50;8.00;99.90
23685;DHT22;12020;51.384;6.908;2023-12-20T12:08:17;8.00;99.90
23685;DHT22;12020;51.384;6.908;2023-12-20T12:10:46;8.00;99.90
23685;DHT22;12020;51.384;6.908;2023-12-20T12:13:13;8.00;99.90
23685;DHT22;12020;51.384;6.908;2023-12-20T12:15:39;8.00;99.90
23685;DHT22;12020;51.384;6.908;2023-12-20T12:18:07;8.10;99.90
23685;DHT22;12020;51.384;6.908;2023-12-20T12:20:33;8.10;99.90
23685;DHT22;12020;51.384;6.908;2023-12-20T12:26:32;8.10;99.90
23685;DHT22;12020;51.384;6.908;2023-12-20T12:28:58;8.00;99.90
23685;DHT22;12020;51.384;6.908;2023-12-20T12:31:23;8.00;99.90
23685;DHT22;12020;51.384;6.908;2023-12-20T12:33:51;8.00;99.90
23685;DHT22;12020;51.384;6.908;2023-12-20T12:42:05;8.00;99.90
23685;DHT22;12020;51.384;6.908;2023-12-20T12:46:04;8.00;99.90
23685;DHT22;12020;51.384;6.908;2023-12-20T12:49:24;8.00;99.90
23685;DHT22;12020;51.384;6.908;2023-12-20T12:53:02;8.10;99.90
23685;DHT22;12020;51.384;6.908;2023-12-20T13:02:23;8.10;99.90
23685;DHT22;12020;51.384;6.908;2023-12-20T13:05:06;8.10;99.90
23685;DHT22;12020;51.384;6.908;2023-12-20T13:07:41;8.10;99.90
23685;DHT22;12020;51.384;6.908;2023-12-20T13:10:06;8.10;99.90
23685;DHT22;12020;51.384;6.908;2023-12-20T13:12:33;8.10;99.90
23685;DHT22;12020;51.384;6.908;2023-12-20T13:14:59;8.10;99.90
23685;DHT22;12020;51.384;6.908;2023-12-20T13:17:25;8.10;99.90
23685;DHT22;12020;51.384;6.908;2023-12-20T13:19:51;8.10;99.90
23685;DHT22;12020;51.384;6.908;2023-12-20T13:22:18;8.00;99.90
23685;DHT22;12020;51.384;6.908;2023-12-20T13:24:45;8.00;99.90
23685;DHT22;12020;51.384;6.908;2023-12-20T13:27:11;8.00;99.90
23685;DHT22;12020;51.384;6.908;2023-12-20T13:29:37;8.00;99.90
23685;DHT22;12020;51.384;6.908;2023-12-20T13:32:04;8.00;99.90
23685;DHT22;12020;51.384;6.908;2023-12-20T13:34:29;7.90;99.90
23685;DHT22;12020;51.384;6.908;2023-12-20T13:36:56;7.90;99.90
23685;DHT22;12020;51.384;6.908;2023-12-20T13:39:22;7.90;99.90
23685;DHT22;12020;51.384;6.908;2023-12-20T13:41:47;7.90;99.90
23685;DHT22;12020;51.384;6.908;2023-12-20T13:44:14;7.80;99.90
23685;DHT22;12020;51.384;6.908;2023-12-20T13:46:41;7.80;99.90
23685;DHT22;12020;51.384;6.908;2023-12-20T13:49:07;7.80;99.90
23685;DHT22;12020;51.384;6.908;2023-12-20T13:51:33;7.80;99.90
23685;DHT22;12020;51.384;6.908;2023-12-20T13:53:59;7.80;99.90
23685;DHT22;12020;51.384;6.908;2023-12-20T13:56:25;7.80;99.90
23685;DHT22;12020;51.384;6.908;2023-12-20T13:58:52;7.80;99.90
23685;DHT22;12020;51.384;6.908;2023-12-20T14:01:18;7.80;99.90
23685;DHT22;12020;51.384;6.908;2023-12-20T14:03:44;7.80;99.90
23685;DHT22;12020;51.384;6.908;2023-12-20T14:06:10;7.80;99.90
23685;DHT22;12020;51.384;6.908;2023-12-20T14:08:35;7.80;99.90
23685;DHT22;12020;51.384;6.908;2023-12-20T14:11:02;7.80;99.90
23685;DHT22;12020;51.384;6.908;2023-12-20T14:13:28;7.80;99.90
23685;DHT22;12020;51.384;6.908;2023-12-20T14:15:54;7.80;99.90
23685;DHT22;12020;51.384;6.908;2023-12-20T14:18:21;7.70;99.90
23685;DHT22;12020;51.384;6.908;2023-12-20T14:20:48;7.80;99.90
23685;DHT22;12020;51.384;6.908;2023-12-20T14:23:13;7.70;99.90
23685;DHT22;12020;51.384;6.908;2023-12-20T14:25:42;7.80;99.90
23685;DHT22;12020;51.384;6.908;2023-12-20T14:28:08;7.80;99.90
23685;DHT22;12020;51.384;6.908;2023-12-20T14:30:35;7.80;99.90
23685;DHT22;12020;51.384;6.908;2023-12-20T14:33:02;7.80;99.90
23685;DHT22;12020;51.384;6.908;2023-12-20T14:35:29;7.80;99.90
23685;DHT22;12020;51.384;6.908;2023-12-20T14:37:55;7.80;99.90
23685;DHT22;12020;51.384;6.908;2023-12-20T14:40:21;7.90;99.90
23685;DHT22;12020;51.384;6.908;2023-12-20T14:42:47;7.80;99.90
23685;DHT22;12020;51.384;6.908;2023-12-20T14:45:14;7.80;99.90
23685;DHT22;12020;51.384;6.908;2023-12-20T14:47:41;7.80;99.90
23685;DHT22;12020;51.384;6.908;2023-12-20T14:50:08;7.80;99.90
23685;DHT22;12020;51.384;6.908;2023-12-20T14:52:33;7.90;99.90
23685;DHT22;12020;51.384;6.908;2023-12-20T14:55:01;7.90;99.90
23685;DHT22;12020;51.384;6.908;2023-12-20T14:57:30;7.90;99.90
23685;DHT22;12020;51.384;6.908;2023-12-20T14:59:57;7.90;99.90
23685;DHT22;12020;51.384;6.908;2023-12-20T15:02:22;7.90;99.90
23685;DHT22;12020;51.384;6.908;2023-12-20T15:04:48;7.90;99.90
23685;DHT22;12020;51.384;6.908;2023-12-20T15:07:15;7.90;99.90
23685;DHT22;12020;51.384;6.908;2023-12-20T15:09:40;7.90;99.90
23685;DHT22;12020;51.384;6.908;2023-12-20T15:12:11;7.90;99.90
23685;DHT22;12020;51.384;6.908;2023-12-20T15:14:42;7.90;99.90
23685;DHT22;12020;51.384;6.908;2023-12-20T15:17:08;7.90;99.90
23685;DHT22;12020;51.384;6.908;2023-12-20T15:19:34;7.90;99.90
23685;DHT22;12020;51.384;6.908;2023-12-20T15:22:00;7.90;99.90
23685;DHT22;12020;51.384;6.908;2023-12-20T15:24:26;7.90;99.90
23685;DHT22;12020;51.384;6.908;2023-12-20T15:26:54;7.90;99.90
23685;DHT22;12020;51.384;6.908;2023-12-20T15:29:21;7.90;99.90
23685;DHT22;12020;51.384;6.908;2023-12-20T15:31:47;8.00;99.90
23685;DHT22;12020;51.384;6.908;2023-12-20T15:34:14;7.90;99.90
23685;DHT22;12020;51.384;6.908;2023-12-20T15:36:41;7.90;99.90
23685;DHT22;12020;51.384;6.908;2023-12-20T15:39:07;7.90;99.90
23685;DHT22;12020;51.384;6.908;2023-12-20T15:41:35;8.00;99.90
23685;DHT22;12020;51.384;6.908;2023-12-20T15:44:01;8.00;99.90
23685;DHT22;12020;51.384;6.908;2023-12-20T15:46:28;8.00;99.90
23685;DHT22;12020;51.384;6.908;2023-12-20T15:48:53;8.00;99.90
23685;DHT22;12020;51.384;6.908;2023-12-20T15:51:21;8.10;99.90
23685;DHT22;12020;51.384;6.908;2023-12-20T15:53:47;8.20;99.90
23685;DHT22;12020;51.384;6.908;2023-12-20T15:56:13;8.20;99.90
23685;DHT22;12020;51.384;6.908;2023-12-20T15:58:39;8.20;99.90
23685;DHT22;12020;51.384;6.908;2023-12-20T16:01:06;8.20;99.90
23685;DHT22;12020;51.384;6.908;2023-12-20T16:03:34;8.20;99.90
23685;DHT22;12020;51.384;6.908;2023-12-20T16:06:00;8.20;99.90
23685;DHT22;12020;51.384;6.908;2023-12-20T16:08:26;8.20;99.90
23685;DHT22;12020;51.384;6.908;2023-12-20T16:10:52;8.20;99.90
23685;DHT22;12020;51.384;6.908;2023-12-20T16:13:18;8.20;99.90
23685;DHT22;12020;51.384;6.908;2023-12-20T16:15:46;8.20;99.90
23685;DHT22;12020;51.384;6.908;2023-12-20T16:18:23;8.30;99.90
23685;DHT22;12020;51.384;6.908;2023-12-20T16:20:49;8.40;99.90
23685;DHT22;12020;51.384;6.908;2023-12-20T16:23:15;8.30;99.90
23685;DHT22;12020;51.384;6.908;2023-12-20T16:25:41;8.30;99.90
23685;DHT22;12020;51.384;6.908;2023-12-20T16:28:07;8.30;99.90
23685;DHT22;12020;51.384;6.908;2023-12-20T16:30:33;8.30;99.90
23685;DHT22;12020;51.384;6.908;2023-12-20T16:32:59;8.20;99.90
23685;DHT22;12020;51.384;6.908;2023-12-20T16:35:25;8.20;99.90
23685;DHT22;12020;51.384;6.908;2023-12-20T16:37:51;8.20;99.90
23685;DHT22;12020;51.384;6.908;2023-12-20T16:40:17;8.20;99.90
23685;DHT22;12020;51.384;6.908;2023-12-20T16:42:52;8.20;99.90
23685;DHT22;12020;51.384;6.908;2023-12-20T16:45:18;8.40;99.90
23685;DHT22;12020;51.384;6.908;2023-12-20T16:47:44;8.30;99.90
23685;DHT22;12020;51.384;6.908;2023-12-20T16:50:21;8.30;99.90
23685;DHT22;12020;51.384;6.908;2023-12-20T17:21:00;8.30;99.90
23685;DHT22;12020;51.384;6.908;2023-12-20T17:27:43;8.30;99.90
23685;DHT22;12020;51.384;6.908;2023-12-20T17:34:26;8.30;99.90
23685;DHT22;12020;51.384;6.908;2023-12-20T17:36:53;8.30;99.90
23685;DHT22;12020;51.384;6.908;2023-12-20T17:39:20;8.30;99.90
23685;DHT22;12020;51.384;6.908;2023-12-20T17:41:46;8.30;99.90
23685;DHT22;12020;51.384;6.908;2023-12-20T17:44:12;8.30;99.90
23685;DHT22;12020;51.384;6.908;2023-12-20T17:46:38;8.30;99.90
23685;DHT22;12020;51.384;6.908;2023-12-20T17:49:04;8.30;99.90
23685;DHT22;12020;51.384;6.908;2023-12-20T17:51:30;8.30;99.90
23685;DHT22;12020;51.384;6.908;2023-12-20T17:54:00;8.30;99.90
23685;DHT22;12020;51.384;6.908;2023-12-20T17:56:28;8.30;99.90
23685;DHT22;12020;51.384;6.908;2023-12-20T17:58:55;8.30;99.90
23685;DHT22;12020;51.384;6.908;2023-12-20T18:01:20;8.30;99.90
23685;DHT22;12020;51.384;6.908;2023-12-20T18:03:47;8.40;99.90
23685;DHT22;12020;51.384;6.908;2023-12-20T18:06:13;8.40;99.90
23685;DHT22;12020;51.384;6.908;2023-12-20T18:08:38;8.40;99.90
23685;DHT22;12020;51.384;6.908;2023-12-20T18:11:04;8.40;99.90
23685;DHT22;12020;51.384;6.908;2023-12-20T18:13:30;8.40;99.90
23685;DHT22;12020;51.384;6.908;2023-12-20T18:15:55;8.40;99.90
23685;DHT22;12020;51.384;6.908;2023-12-20T18:18:21;8.40;99.90
23685;DHT22;12020;51.384;6.908;2023-12-20T18:20:47;8.40;99.90
23685;DHT22;12020;51.384;6.908;2023-12-20T18:23:13;8.40;99.90
23685;DHT22;12020;51.384;6.908;2023-12-20T18:25:38;8.40;99.90
23685;DHT22;12020;51.384;6.908;2023-12-20T18:28:05;8.30;99.90
23685;DHT22;12020;51.384;6.908;2023-12-20T18:30:31;8.40;99.90
23685;DHT22;12020;51.384;6.908;2023-12-20T18:32:57;8.50;99.90
23685;DHT22;12020;51.384;6.908;2023-12-20T18:35:23;8.50;99.90
23685;DHT22;12020;51.384;6.908;2023-12-20T18:37:49;8.40;99.90
23685;DHT22;12020;51.384;6.908;2023-12-20T18:40:16;8.50;99.90
23685;DHT22;12020;51.384;6.908;2023-12-20T18:42:41;8.50;99.90
23685;DHT22;12020;51.384;6.908;2023-12-20T18:45:07;8.50;99.90
23685;DHT22;12020;51.384;6.908;2023-12-20T18:47:33;8.50;99.90
23685;DHT22;12020;51.384;6.908;2023-12-20T18:49:59;8.50;99.90
23685;DHT22;12020;51.384;6.908;2023-12-20T18:52:31;8.50;99.90
23685;DHT22;12020;51.384;6.908;2023-12-20T18:54:56;8.50;99.90
23685;DHT22;12020;51.384;6.908;2023-12-20T18:57:22;8.50;99.90
23685;DHT22;12020;51.384;6.908;2023-12-20T18:59:48;8.50;99.90
23685;DHT22;12020;51.384;6.908;2023-12-20T19:02:13;8.60;99.90
23685;DHT22;12020;51.384;6.908;2023-12-20T19:04:39;8.60;99.90
23685;DHT22;12020;51.384;6.908;2023-12-20T19:07:05;8.60;99.90
23685;DHT22;12020;51.384;6.908;2023-12-20T19:09:32;8.60;99.90
23685;DHT22;12020;51.384;6.908;2023-12-20T19:11:58;8.60;99.90
23685;DHT22;12020;51.384;6.908;2023-12-20T19:14:24;8.60;99.90
23685;DHT22;12020;51.384;6.908;2023-12-20T19:16:50;8.60;99.90
23685;DHT22;12020;51.384;6.908;2023-12-20T19:19:16;8.60;99.90
23685;DHT22;12020;51.384;6.908;2023-12-20T19:21:42;8.60;99.90
23685;DHT22;12020;51.384;6.908;2023-12-20T19:24:09;8.60;99.90
23685;DHT22;12020;51.384;6.908;2023-12-20T19:26:35;8.60;99.90
23685;DHT22;12020;51.384;6.908;2023-12-20T19:29:00;8.60;99.90
23685;DHT22;12020;51.384;6.908;2023-12-20T19:31:27;8.60;99.90
23685;DHT22;12020;51.384;6.908;2023-12-20T19:33:54;8.60;99.90
23685;DHT22;12020;51.384;6.908;2023-12-20T19:36:21;8.70;99.90
23685;DHT22;12020;51.384;6.908;2023-12-20T19:38:47;8.70;99.90
23685;DHT22;12020;51.384;6.908;2023-12-20T19:41:14;8.70;99.90
23685;DHT22;12020;51.384;6.908;2023-12-20T19:43:42;8.70;99.90
23685;DHT22;12020;51.384;6.908;2023-12-20T19:46:08;8.70;99.90
23685;DHT22;12020;51.384;6.908;2023-12-20T19:48:34;8.70;99.90
23685;DHT22;12020;51.384;6.908;2023-12-20T19:50:59;8.80;99.90
23685;DHT22;12020;51.384;6.908;2023-12-20T19:53:26;8.80;99.90
23685;DHT22;12020;51.384;6.908;2023-12-20T19:55:53;8.70;99.90
23685;DHT22;12020;51.384;6.908;2023-12-20T19:58:19;8.80;99.90
23685;DHT22;12020;51.384;6.908;2023-12-20T20:00:45;8.70;99.90
23685;DHT22;12020;51.384;6.908;2023-12-20T20:03:11;8.80;99.90
23685;DHT22;12020;51.384;6.908;2023-12-20T20:05:37;8.70;99.90
23685;DHT22;12020;51.384;6.908;2023-12-20T20:08:06;8.70;99.90
23685;DHT22;12020;51.384;6.908;2023-12-20T20:10:34;8.70;99.90
23685;DHT22;12020;51.384;6.908;2023-12-20T20:13:00;8.70;99.90
23685;DHT22;12020;51.384;6.908;2023-12-20T20:15:26;8.70;99.90
23685;DHT22;12020;51.384;6.908;2023-12-20T20:17:52;8.70;99.90
23685;DHT22;12020;51.384;6.908;2023-12-20T20:20:17;8.70;99.90
23685;DHT22;12020;51.384;6.908;2023-12-20T20:22:44;8.70;99.90
23685;DHT22;12020;51.384;6.908;2023-12-20T20:25:11;8.70;99.90
23685;DHT22;12020;51.384;6.908;2023-12-20T20:27:37;8.70;99.90
23685;DHT22;12020;51.384;6.908;2023-12-20T20:30:05;8.70;99.90
23685;DHT22;12020;51.384;6.908;2023-12-20T20:32:31;8.70;99.90
23685;DHT22;12020;51.384;6.908;2023-12-20T20:34:57;8.70;99.90
23685;DHT22;12020;51.384;6.908;2023-12-20T20:46:15;8.80;99.90
23685;DHT22;12020;51.384;6.908;2023-12-20T20:48:45;8.70;99.90
23685;DHT22;12020;51.384;6.908;2023-12-20T20:51:34;8.70;99.90
23685;DHT22;12020;51.384;6.908;2023-12-20T20:54:18;8.80;99.90
23685;DHT22;12020;51.384;6.908;2023-12-20T20:57:13;8.80;99.90
23685;DHT22;12020;51.384;6.908;2023-12-20T20:59:48;8.70;99.90
23685;DHT22;12020;51.384;6.908;2023-12-20T21:02:14;8.70;99.90
23685;DHT22;12020;51.384;6.908;2023-12-20T21:04:43;8.70;99.90
23685;DHT22;12020;51.384;6.908;2023-12-20T21:07:58;8.70;99.90
23685;DHT22;12020;51.384;6.908;2023-12-20T21:11:47;8.70;99.90
23685;DHT22;12020;51.384;6.908;2023-12-20T21:15:01;8.60;99.90
23685;DHT22;12020;51.384;6.908;2023-12-20T21:17:55;8.70;99.90
23685;DHT22;12020;51.384;6.908;2023-12-20T21:20:56;8.70;99.90
23685;DHT22;12020;51.384;6.908;2023-12-20T21:23:23;8.70;99.90
23685;DHT22;12020;51.384;6.908;2023-12-20T21:26:08;8.70;99.90
23685;DHT22;12020;51.384;6.908;2023-12-20T21:28:38;8.70;99.90
23685;DHT22;12020;51.384;6.908;2023-12-20T21:31:06;8.70;99.90
23685;DHT22;12020;51.384;6.908;2023-12-20T21:36:42;8.70;99.90
23685;DHT22;12020;51.384;6.908;2023-12-20T21:46:18;8.70;99.90
23685;DHT22;12020;51.384;6.908;2023-12-20T21:48:55;8.70;99.90
23685;DHT22;12020;51.384;6.908;2023-12-20T21:51:52;8.70;99.90
23685;DHT22;12020;51.384;6.908;2023-12-20T21:54:18;8.70;99.90
23685;DHT22;12020;51.384;6.908;2023-12-20T21:56:54;8.80;99.90
23685;DHT22;12020;51.384;6.908;2023-12-20T21:59:20;8.70;99.90
23685;DHT22;12020;51.384;6.908;2023-12-20T22:01:52;8.70;99.90
23685;DHT22;12020;51.384;6.908;2023-12-20T22:04:18;8.70;99.90
23685;DHT22;12020;51.384;6.908;2023-12-20T22:06:44;8.70;99.90
23685;DHT22;12020;51.384;6.908;2023-12-20T22:09:10;8.80;99.90
23685;DHT22;12020;51.384;6.908;2023-12-20T22:11:37;8.80;99.90
23685;DHT22;12020;51.384;6.908;2023-12-20T22:14:26;8.80;99.90
23685;DHT22;12020;51.384;6.908;2023-12-20T22:16:58;8.80;99.90
23685;DHT22;12020;51.384;6.908;2023-12-20T22:19:29;8.80;99.90
23685;DHT22;12020;51.384;6.908;2023-12-20T22:22:08;8.80;99.90
23685;DHT22;12020;51.384;6.908;2023-12-20T22:24:53;8.80;99.90
23685;DHT22;12020;51.384;6.908;2023-12-20T22:27:20;8.80;99.90
23685;DHT22;12020;51.384;6.908;2023-12-20T22:29:46;8.80;99.90
23685;DHT22;12020;51.384;6.908;2023-12-20T22:32:13;8.80;99.90
23685;DHT22;12020;51.384;6.908;2023-12-20T22:35:07;8.80;99.90
23685;DHT22;12020;51.384;6.908;2023-12-20T22:38:11;8.80;99.90
23685;DHT22;12020;51.384;6.908;2023-12-20T22:40:44;8.80;99.90
23685;DHT22;12020;51.384;6.908;2023-12-20T22:43:35;8.80;99.90
23685;DHT22;12020;51.384;6.908;2023-12-20T22:46:07;8.80;99.90
23685;DHT22;12020;51.384;6.908;2023-12-20T22:48:35;8.80;99.90
23685;DHT22;12020;51.384;6.908;2023-12-20T22:51:06;8.80;99.90
23685;DHT22;12020;51.384;6.908;2023-12-20T22:53:34;8.80;99.90
23685;DHT22;12020;51.384;6.908;2023-12-20T22:56:07;8.80;99.90
23685;DHT22;12020;51.384;6.908;2023-12-20T22:58:38;8.80;99.90
23685;DHT22;12020;51.384;6.908;2023-12-20T23:04:02;8.90;99.90
23685;DHT22;12020;51.384;6.908;2023-12-20T23:09:35;8.90;99.90
23685;DHT22;12020;51.384;6.908;2023-12-20T23:15:48;8.90;99.90
23685;DHT22;12020;51.384;6.908;2023-12-20T23:18:14;9.00;99.90
23685;DHT22;12020;51.384;6.908;2023-12-20T23:20:39;8.90;99.90
23685;DHT22;12020;51.384;6.908;2023-12-20T23:23:06;9.00;99.90
23685;DHT22;12020;51.384;6.908;2023-12-20T23:25:34;8.90;99.90
23685;DHT22;12020;51.384;6.908;2023-12-20T23:28:01;9.00;99.90
23685;DHT22;12020;51.384;6.908;2023-12-20T23:30:27;9.00;99.90
23685;DHT22;12020;51.384;6.908;2023-12-20T23:33:11;9.00;99.90
23685;DHT22;12020;51.384;6.908;2023-12-20T23:35:37;9.00;99.90
23685;DHT22;12020;51.384;6.908;2023-12-20T23:38:04;9.00;99.90
23685;DHT22;12020;51.384;6.908;2023-12-20T23:40:30;9.00;99.90
23685;DHT22;12020;51.384;6.908;2023-12-20T23:42:58;9.00;99.90
23685;DHT22;12020;51.384;6.908;2023-12-20T23:48:53;9.00;99.90
23685;DHT22;12020;51.384;6.908;2023-12-20T23:54:23;9.00;99.90
23685;DHT22;12020;51.384;6.908;2023-12-20T23:56:50;9.10;99.90
23685;DHT22;12020;51.384;6.908;2023-12-20T23:59:17;9.00;99.90
